Time;durP1;ratioP1;P1;durP2;ratioP2;P2;SDS_P1;SDS_P2;PMS_P1;PMS_P2;Temp;Humidity;BMP_temperature;BMP_pressure;BME280_temperature;BME280_humidity;BME280_pressure;Samples;Min_cycle;Max_cycle;Signal;HPM_P1;HPM_P2
2021/03/05 00:00:36;;;;;;;40.28;24.40;;;;;;;5.43;61.23;99916.22;1699832;83;21208;-74
2021/03/05 00:03:06;;;;;;;38.78;22.77;;;;;;;5.43;61.23;99925.36;1710076;82;21580;-74
2021/03/05 00:05:39;;;;;;;40.60;22.87;;;;;;;5.50;61.09;99916.17;1709755;82;21165;-75
2021/03/05 00:08:08;;;;;;;39.50;23.50;;;;;;;5.55;61.18;99918.48;1699068;83;21192;-76
2021/03/05 00:10:38;;;;;;;35.28;23.05;;;;;;;5.55;61.18;99918.48;1685057;83;21149;-74
2021/03/05 00:13:05;;;;;;;41.90;23.07;;;;;;;5.55;60.90;99923.70;1699351;82;22672;-74
2021/03/05 00:15:42;;;;;;;41.73;23.73;;;;;;;5.56;60.88;99922.30;1719412;82;21168;-74
2021/03/05 00:18:11;;;;;;;38.30;22.45;;;;;;;5.57;60.85;99925.27;1723935;82;21165;-74
2021/03/05 00:20:44;;;;;;;40.98;23.42;;;;;;;5.56;60.85;99915.78;1722328;82;22265;-75
2021/03/05 00:23:11;;;;;;;40.30;22.00;;;;;;;5.53;60.85;99913.81;1680937;83;21172;-74
2021/03/05 00:25:39;;;;;;;41.05;20.82;;;;;;;5.48;60.95;99914.14;1670475;83;21192;-74
2021/03/05 00:28:07;;;;;;;39.73;21.12;;;;;;;5.48;60.95;99914.14;1693454;83;21196;-75
2021/03/05 00:30:34;;;;;;;31.45;20.52;;;;;;;5.48;61.00;99918.50;1691573;84;21596;-74
2021/03/05 00:33:04;;;;;;;37.80;21.33;;;;;;;5.53;60.91;99915.12;1717229;82;21144;-74
2021/03/05 00:35:34;;;;;;;38.25;22.10;;;;;;;5.79;60.35;99924.31;1683908;84;21188;-74
2021/03/05 00:38:01;;;;;;;36.05;20.68;;;;;;;5.79;60.35;99924.31;1696616;83;22120;-74
2021/03/05 00:40:28;;;;;;;35.68;20.68;;;;;;;5.90;60.26;99921.78;1695654;83;21668;-74
2021/03/05 00:42:56;;;;;;;36.17;21.40;;;;;;;5.95;60.05;99928.39;1684393;83;21144;-74
2021/03/05 00:45:23;;;;;;;36.20;23.00;;;;;;;5.99;59.93;99923.81;1698287;83;21595;-74
2021/03/05 00:47:52;;;;;;;38.28;21.02;;;;;;;6.09;59.67;99927.47;1736633;82;22348;-74
2021/03/05 00:50:21;;;;;;;37.60;21.00;;;;;;;6.13;59.45;99926.30;1704485;82;22160;-74
2021/03/05 00:52:50;;;;;;;39.78;18.35;;;;;;;6.15;59.16;99926.20;1696449;83;21156;-74
2021/03/05 00:55:20;;;;;;;31.45;16.60;;;;;;;6.14;58.15;99929.29;1714607;83;21647;-75
2021/03/05 00:57:48;;;;;;;28.07;15.85;;;;;;;6.10;57.70;99930.45;1671658;83;21638;-74
2021/03/05 01:00:17;;;;;;;27.85;14.03;;;;;;;6.02;56.20;99928.84;1702146;83;21168;-78
2021/03/05 01:02:45;;;;;;;21.27;12.23;;;;;;;5.92;55.73;99929.06;1704671;83;22311;-75
2021/03/05 01:05:13;;;;;;;23.22;12.25;;;;;;;5.82;54.59;99933.25;1662942;83;21183;-74
2021/03/05 01:07:40;;;;;;;22.32;11.83;;;;;;;5.72;54.77;99936.94;1711702;83;21192;-75
2021/03/05 01:10:10;;;;;;;20.48;11.08;;;;;;;5.67;54.84;99936.41;1669963;83;21208;-74
2021/03/05 01:12:37;;;;;;;26.93;11.12;;;;;;;5.61;54.76;99938.94;1696381;83;21168;-74
2021/03/05 01:15:07;;;;;;;17.32;9.23;;;;;;;5.53;54.37;99928.17;1686047;83;22172;-74
2021/03/05 01:17:34;;;;;;;18.05;9.58;;;;;;;5.48;54.37;99926.34;1746392;81;21168;-74
2021/03/05 01:20:12;;;;;;;19.15;10.05;;;;;;;5.37;54.39;99919.23;1761011;81;21113;-74
2021/03/05 01:22:39;;;;;;;19.02;9.93;;;;;;;5.37;54.39;99919.23;1743748;81;22276;-73
2021/03/05 01:25:09;;;;;;;11.10;6.65;;;;;;;5.35;54.17;99917.20;1745041;81;21199;-73
2021/03/05 01:27:36;;;;;;;19.30;8.43;;;;;;;5.31;53.52;99919.62;1742466;81;21418;-73
2021/03/05 01:30:06;;;;;;;13.32;6.70;;;;;;;5.22;53.35;99918.45;1711574;83;21588;-73
2021/03/05 01:32:33;;;;;;;14.73;7.15;;;;;;;5.15;53.52;99915.88;1744604;81;21592;-74
2021/03/05 01:35:11;;;;;;;16.97;7.70;;;;;;;5.12;53.54;99919.98;1736740;81;21139;-75
2021/03/05 01:37:56;;;;;;;14.25;7.65;;;;;;;5.12;53.65;99927.34;1872896;74;22888;-63
2021/03/05 01:40:37;;;;;;;15.18;6.85;;;;;;;5.06;53.49;99923.84;1812670;77;21600;-63
2021/03/05 01:43:08;;;;;;;15.78;6.90;;;;;;;5.03;53.60;99930.08;1804712;78;21183;-62
2021/03/05 01:45:35;;;;;;;14.50;7.08;;;;;;;5.01;53.43;99930.65;1807492;77;21199;-61
2021/03/05 01:48:16;;;;;;;14.00;6.53;;;;;;;4.96;53.56;99926.64;1817287;77;21112;-62
2021/03/05 01:50:52;;;;;;;12.73;6.45;;;;;;;4.96;53.54;99930.55;1819756;77;21164;-63
2021/03/05 01:53:20;;;;;;;12.23;6.85;;;;;;;4.95;53.51;99928.90;1832958;77;22154;-63
2021/03/05 01:55:49;;;;;;;12.58;6.03;;;;;;;4.92;53.56;99927.31;1818971;78;22219;-63
2021/03/05 01:58:18;;;;;;;11.05;7.03;;;;;;;4.90;53.69;99928.36;1816223;78;21140;-63
2021/03/05 02:01:00;;;;;;;11.05;6.28;;;;;;;4.90;53.89;99931.80;1822614;78;21162;-63
2021/03/05 02:03:31;;;;;;;13.72;7.75;;;;;;;4.90;53.93;99934.40;1800965;78;21188;-63
2021/03/05 02:05:59;;;;;;;13.35;7.90;;;;;;;4.92;53.91;99941.66;1805377;78;21148;-62
2021/03/05 02:08:27;;;;;;;11.73;6.62;;;;;;;4.92;53.85;99944.25;1802480;78;21797;-62
2021/03/05 02:10:55;;;;;;;12.37;6.83;;;;;;;4.92;53.94;99946.86;1805670;78;21217;-62
2021/03/05 02:13:24;;;;;;;16.70;8.23;;;;;;;4.93;54.02;99949.02;1824944;78;21128;-63
2021/03/05 02:15:52;;;;;;;12.20;6.72;;;;;;;4.94;53.90;99946.33;1803523;78;21164;-63
2021/03/05 02:18:34;;;;;;;12.47;7.75;;;;;;;4.95;53.91;99949.28;1799871;78;21140;-62
2021/03/05 02:21:27;;;;;;;17.30;7.62;;;;;;;4.98;53.94;99948.27;1803601;78;21180;-62
2021/03/05 02:24:20;;;;;;;12.85;5.87;;;;;;;4.96;53.83;99964.45;1779458;77;21093;-64
2021/03/05 02:27:46;;;;;;;12.93;7.28;;;;;;;4.94;53.99;99968.48;1775527;78;21260;-61
2021/03/05 02:30:54;;;;;;;14.55;6.00;;;;;;;4.89;54.10;99973.13;1791239;77;21626;-62
2021/03/05 02:33:30;;;;;;;16.85;9.20;;;;;;;4.83;54.22;99977.44;1840606;77;21100;-61
2021/03/05 02:36:08;;;;;;;19.80;7.37;;;;;;;4.81;54.37;99973.62;1844799;76;22535;-63
2021/03/05 02:38:36;;;;;;;17.02;7.50;;;;;;;4.75;54.56;99975.77;1718177;81;21591;-61
2021/03/05 02:41:05;;;;;;;18.87;7.53;;;;;;;4.72;54.85;99975.48;1813771;78;21376;-63
2021/03/05 02:43:32;;;;;;;15.43;8.70;;;;;;;4.65;55.04;99976.33;1819262;78;21163;-60
2021/03/05 02:46:03;;;;;;;13.00;7.22;;;;;;;4.63;55.15;99983.41;1753961;80;21204;-63
2021/03/05 02:48:40;;;;;;;16.12;7.58;;;;;;;4.61;55.32;99974.86;1746615;80;21160;-63
2021/03/05 02:51:09;;;;;;;16.32;8.80;;;;;;;4.60;55.43;99985.37;1795391;78;21150;-63
2021/03/05 02:53:38;;;;;;;18.77;8.73;;;;;;;4.59;55.48;99991.06;1782884;79;21207;-63
2021/03/05 02:56:11;;;;;;;16.60;8.58;;;;;;;4.56;55.67;99999.06;1796074;78;21714;-62
2021/03/05 02:58:41;;;;;;;16.70;7.53;;;;;;;4.56;55.76;99992.55;1803853;78;21203;-63
2021/03/05 03:01:10;;;;;;;15.43;7.97;;;;;;;4.54;55.95;99998.33;1815398;78;21159;-63
2021/03/05 03:03:38;;;;;;;16.02;7.78;;;;;;;4.54;56.03;100003.54;1784694;78;21196;-63
2021/03/05 03:06:10;;;;;;;19.62;8.23;;;;;;;4.53;56.10;100012.27;1753849;79;21423;-63
2021/03/05 03:08:37;;;;;;;16.62;8.55;;;;;;;4.57;56.16;100012.92;1820333;78;21564;-63
2021/03/05 03:11:06;;;;;;;18.25;9.10;;;;;;;4.59;56.08;100014.52;1802994;78;21133;-63
2021/03/05 03:13:36;;;;;;;17.12;8.48;;;;;;;4.60;56.13;100016.64;1804471;78;21192;-63
2021/03/05 03:16:05;;;;;;;16.45;8.78;;;;;;;4.59;56.24;100016.27;1775210;78;21133;-63
2021/03/05 03:18:35;;;;;;;18.32;7.67;;;;;;;4.57;56.26;100015.52;1748948;82;21221;-63
2021/03/05 03:21:03;;;;;;;16.82;8.15;;;;;;;4.57;56.40;100016.38;1782811;78;21198;-63
2021/03/05 03:23:30;;;;;;;17.23;8.98;;;;;;;4.60;56.37;100021.38;1788094;78;21156;-63
2021/03/05 03:26:00;;;;;;;15.40;8.95;;;;;;;4.64;56.39;100024.67;1803487;78;21128;-63
2021/03/05 03:28:28;;;;;;;18.27;9.03;;;;;;;4.63;56.30;100022.50;1792503;78;21209;-62
2021/03/05 03:30:56;;;;;;;18.30;9.38;;;;;;;4.61;56.43;100020.47;1751608;80;21370;-63
2021/03/05 03:33:24;;;;;;;17.05;8.63;;;;;;;4.57;56.59;100021.59;1798175;78;21179;-63
2021/03/05 03:35:51;;;;;;;17.45;9.20;;;;;;;4.53;56.72;100027.91;1820246;78;21670;-63
2021/03/05 03:38:19;;;;;;;19.92;9.73;;;;;;;4.51;56.93;100024.56;1750198;81;21209;-63
2021/03/05 03:40:49;;;;;;;19.55;9.40;;;;;;;4.52;57.02;100034.04;1708759;81;21201;-63
2021/03/05 03:43:18;;;;;;;21.25;10.13;;;;;;;4.53;57.11;100030.98;1730996;81;21927;-62
2021/03/05 03:45:46;;;;;;;17.32;9.73;;;;;;;4.50;57.24;100033.30;1713316;82;21156;-62
2021/03/05 03:48:14;;;;;;;16.40;9.73;;;;;;;4.49;57.31;100038.16;1725513;81;21165;-62
2021/03/05 03:51:02;;;;;;;16.90;9.08;;;;;;;4.50;57.41;100041.59;1718783;81;21156;-62
2021/03/05 03:53:30;;;;;;;21.25;9.95;;;;;;;4.50;57.41;100044.20;1765107;80;21159;-62
2021/03/05 03:55:58;;;;;;;16.95;9.48;;;;;;;4.47;57.51;100037.39;1754899;81;22269;-62
2021/03/05 03:58:26;;;;;;;18.25;9.08;;;;;;;4.44;57.56;100032.39;1698798;81;21191;-62
2021/03/05 04:00:58;;;;;;;18.12;10.35;;;;;;;4.42;57.67;100028.56;1751892;80;21183;-62
2021/03/05 04:03:30;;;;;;;16.02;9.13;;;;;;;4.43;57.72;100037.21;1740905;81;21175;-63
2021/03/05 04:05:57;;;;;;;22.67;10.28;;;;;;;4.44;57.77;100040.20;1726505;81;21152;-63
2021/03/05 04:08:28;;;;;;;14.10;8.38;;;;;;;4.45;57.78;100040.55;1724273;80;21295;-63
2021/03/05 04:10:56;;;;;;;20.85;9.33;;;;;;;4.46;57.79;100041.77;1746821;81;21191;-63
2021/03/05 04:13:26;;;;;;;14.63;8.65;;;;;;;4.44;57.83;100044.94;1748639;80;21219;-63
2021/03/05 04:15:54;;;;;;;16.95;9.43;;;;;;;4.41;57.90;100046.89;1740900;80;21176;-63
2021/03/05 04:18:21;;;;;;;23.20;12.37;;;;;;;4.38;57.93;100038.78;1720697;81;21137;-62
2021/03/05 04:20:50;;;;;;;24.63;13.80;;;;;;;4.39;57.96;100046.16;1739371;81;21271;-65
2021/03/05 04:23:18;;;;;;;40.85;23.27;;;;;;;4.39;57.90;100052.67;1756984;80;21302;-64
2021/03/05 04:25:46;;;;;;;39.27;21.87;;;;;;;4.40;57.89;100047.81;1752592;81;21682;-60
2021/03/05 04:28:14;;;;;;;48.75;25.72;;;;;;;4.39;57.96;100046.16;1734065;81;21140;-60
2021/03/05 04:30:42;;;;;;;28.02;16.12;;;;;;;4.40;57.99;100042.12;1751585;81;21137;-76
2021/03/05 04:33:09;;;;;;;19.75;10.40;;;;;;;4.40;58.04;100049.94;1741196;80;22272;-62
2021/03/05 04:35:36;;;;;;;17.20;10.23;;;;;;;4.39;58.07;100048.77;1745328;81;21180;-62
2021/03/05 04:38:04;;;;;;;19.75;9.98;;;;;;;4.38;58.19;100050.98;1743089;81;21175;-65
2021/03/05 04:40:33;;;;;;;19.45;10.43;;;;;;;4.39;58.27;100060.48;1713094;82;21224;-63
2021/03/05 04:43:02;;;;;;;16.07;9.70;;;;;;;4.41;58.30;100059.45;1720346;82;21215;-65
2021/03/05 04:45:32;;;;;;;15.90;9.58;;;;;;;4.44;58.30;100060.57;1718563;81;22293;-63
2021/03/05 04:47:59;;;;;;;21.05;9.90;;;;;;;4.49;58.31;100064.21;1737144;82;21189;-62
2021/03/05 04:50:27;;;;;;;16.77;8.90;;;;;;;4.50;58.31;100067.17;1717306;83;21199;-63
2021/03/05 04:52:57;;;;;;;18.55;10.23;;;;;;;4.52;58.35;100065.30;1724600;81;21889;-64
2021/03/05 04:55:25;;;;;;;24.20;11.05;;;;;;;4.53;58.50;100068.77;1736539;81;21160;-63
2021/03/05 04:57:54;;;;;;;18.35;10.25;;;;;;;4.57;58.68;100068.50;1726150;81;21204;-65
2021/03/05 05:00:22;;;;;;;17.10;9.20;;;;;;;4.67;58.67;100069.23;1700105;82;21231;-63
2021/03/05 05:02:52;;;;;;;16.48;9.95;;;;;;;4.73;58.71;100069.70;1737984;82;21208;-65
2021/03/05 05:05:20;;;;;;;14.13;9.38;;;;;;;4.74;58.78;100070.09;1716988;81;21206;-62
2021/03/05 05:07:48;;;;;;;21.35;10.50;;;;;;;4.76;58.78;100077.34;1717599;81;21234;-63
2021/03/05 05:10:17;;;;;;;22.27;12.23;;;;;;;4.73;58.95;100074.09;1726135;81;21176;-62
2021/03/05 05:12:45;;;;;;;22.37;11.45;;;;;;;4.63;60.10;100070.72;1722243;82;21228;-64
2021/03/05 05:15:12;;;;;;;18.05;11.08;;;;;;;4.51;60.96;100073.24;1740362;82;21164;-62
2021/03/05 05:17:40;;;;;;;19.77;10.95;;;;;;;4.25;62.31;100082.11;1701145;82;21281;-62
2021/03/05 05:20:09;;;;;;;22.75;12.90;;;;;;;4.25;62.31;100082.11;1740829;82;21200;-64
2021/03/05 05:22:38;;;;;;;17.32;9.98;;;;;;;4.23;63.18;100085.27;1739967;82;21437;-64
2021/03/05 05:25:08;;;;;;;22.55;11.25;;;;;;;4.30;63.38;100083.15;1722112;83;21202;-64
2021/03/05 05:27:36;;;;;;;27.07;11.50;;;;;;;4.40;63.63;100081.20;1703961;82;21223;-63
2021/03/05 05:30:04;;;;;;;22.82;12.07;;;;;;;4.44;63.67;100081.89;1708781;82;21232;-64
2021/03/05 05:32:32;;;;;;;25.35;12.07;;;;;;;4.44;63.90;100086.62;1743794;82;21179;-64
2021/03/05 05:34:59;;;;;;;23.18;11.97;;;;;;;4.48;64.00;100090.36;1744907;81;21462;-64
2021/03/05 05:37:27;;;;;;;19.20;10.95;;;;;;;4.50;64.11;100091.92;1767000;80;21222;-65
2021/03/05 05:40:00;;;;;;;20.60;12.37;;;;;;;4.49;64.26;100098.08;1749404;80;21113;-64
2021/03/05 05:42:32;;;;;;;22.45;12.07;;;;;;;4.48;64.37;100097.70;1750698;80;21240;-64
2021/03/05 05:45:03;;;;;;;20.97;11.53;;;;;;;4.46;64.42;100092.58;1750372;80;21199;-64
2021/03/05 05:47:32;;;;;;;18.80;9.95;;;;;;;4.43;64.57;100091.45;1723256;81;22381;-63
2021/03/05 05:50:04;;;;;;;18.50;9.63;;;;;;;4.42;64.64;100098.05;1695522;81;21257;-64
2021/03/05 05:52:34;;;;;;;17.85;11.93;;;;;;;4.37;64.75;100098.78;1721697;81;21183;-65
2021/03/05 05:55:05;;;;;;;22.20;11.78;;;;;;;4.38;65.14;100100.47;1740971;81;21258;-64
2021/03/05 05:57:37;;;;;;;24.43;11.20;;;;;;;4.53;65.12;100111.29;1747630;81;21215;-64
2021/03/05 06:00:09;;;;;;;19.82;10.78;;;;;;;4.64;64.93;100120.62;1750164;81;21132;-64
2021/03/05 06:02:39;;;;;;;18.87;10.40;;;;;;;4.68;64.93;100123.05;1717541;81;21785;-64
2021/03/05 06:05:08;;;;;;;23.12;11.50;;;;;;;4.70;65.01;100116.80;1698213;81;21197;-64
2021/03/05 06:07:36;;;;;;;21.37;11.25;;;;;;;4.73;65.02;100123.14;1717307;81;21708;-65
2021/03/05 06:10:07;;;;;;;23.95;11.38;;;;;;;4.74;65.04;100129.18;1744539;80;21753;-62
2021/03/05 06:12:36;;;;;;;20.62;12.70;;;;;;;4.74;65.10;100131.34;1742827;81;21246;-62
2021/03/05 06:15:09;;;;;;;23.18;12.90;;;;;;;4.68;65.14;100129.56;1713685;81;21247;-62
2021/03/05 06:17:43;;;;;;;26.27;12.80;;;;;;;4.54;65.32;100131.22;1739459;81;21218;-61
2021/03/05 06:20:21;;;;;;;25.75;11.45;;;;;;;4.46;65.42;100139.95;1869704;75;22325;-63
2021/03/05 06:23:10;;;;;;;18.00;9.68;;;;;;;4.37;65.61;100146.54;1787552;77;21109;-63
2021/03/05 06:25:36;;;;;;;18.05;10.85;;;;;;;4.43;65.41;100138.34;1778645;78;21379;-62
2021/03/05 06:28:33;;;;;;;20.25;11.20;;;;;;;4.53;65.15;100145.16;1804620;78;21192;-64
2021/03/05 06:31:13;;;;;;;20.08;10.75;;;;;;;4.60;65.05;100146.95;1796514;78;21194;-63
2021/03/05 06:33:41;;;;;;;21.12;11.40;;;;;;;4.65;65.00;100154.86;1765734;79;21380;-61
2021/03/05 06:36:20;;;;;;;21.57;10.75;;;;;;;4.67;64.99;100159.98;1786709;78;21207;-62
2021/03/05 06:38:48;;;;;;;20.95;11.25;;;;;;;4.66;64.94;100159.63;1764190;78;21961;-60
2021/03/05 06:41:28;;;;;;;20.00;10.13;;;;;;;4.63;64.73;100161.11;1805681;78;21054;-61
2021/03/05 06:43:59;;;;;;;16.70;10.50;;;;;;;4.60;64.87;100159.50;1793616;78;21030;-62
2021/03/05 06:46:35;;;;;;;17.32;9.40;;;;;;;4.60;64.94;100159.50;1800608;78;21109;-61
2021/03/05 06:49:12;;;;;;;23.95;11.33;;;;;;;4.64;64.85;100153.67;1797603;78;21194;-61
2021/03/05 06:51:41;;;;;;;24.43;9.88;;;;;;;4.61;64.65;100153.38;1800098;78;21414;-62
2021/03/05 06:56:53;;;;;;;23.27;10.38;;;;;;;4.61;64.59;100151.24;1862386;75;22018;-66
2021/03/05 06:59:23;;;;;;;22.13;9.48;;;;;;;4.60;64.43;100158.20;1839558;75;21777;-75
2021/03/05 07:01:58;;;;;;;18.67;10.53;;;;;;;4.59;64.36;100165.66;1848836;75;22374;-62
2021/03/05 07:04:34;;;;;;;17.50;10.00;;;;;;;4.63;64.12;100163.70;1844104;76;21202;-62
2021/03/05 07:07:06;;;;;;;;;;;;;;;4.76;64.01;100159.92;1848420;75;21171;-61
2021/03/05 07:09:45;;;;;;;17.82;9.58;;;;;;;4.89;63.85;100154.33;1850000;75;20300;-61
2021/03/05 07:12:21;;;;;;;16.32;8.78;;;;;;;4.97;63.54;100153.40;1836441;75;21754;-61
2021/03/05 07:14:51;;;;;;;23.50;9.38;;;;;;;5.08;63.18;100158.42;1830103;77;21206;-61
2021/03/05 07:17:19;;;;;;;19.25;8.75;;;;;;;5.13;63.01;100153.80;1833113;77;21198;-61
2021/03/05 07:19:47;;;;;;;19.45;10.23;;;;;;;5.15;62.73;100157.14;1830510;76;21741;-60
2021/03/05 07:22:14;;;;;;;17.27;9.23;;;;;;;5.17;62.57;100149.58;1829149;75;21187;-61
2021/03/05 07:24:42;;;;;;;18.48;9.45;;;;;;;5.19;62.32;100154.27;1794517;76;21208;-62
2021/03/05 07:28:05;;;;;;;19.37;8.88;;;;;;;5.26;61.76;100156.48;1869766;76;22608;-61
2021/03/05 07:30:33;;;;;;;22.42;9.83;;;;;;;5.20;61.48;100150.70;1833511;77;21128;-61
2021/03/05 07:33:00;;;;;;;16.93;9.63;;;;;;;5.17;61.51;100152.19;1845308;76;22101;-61
2021/03/05 07:35:37;;;;;;;18.30;10.03;;;;;;;5.15;61.56;100157.14;1770175;78;21071;-61
2021/03/05 07:38:15;;;;;;;21.93;8.48;;;;;;;5.09;61.80;100154.42;1806655;77;21181;-61
2021/03/05 07:40:44;;;;;;;;;;;;;;;5.03;61.64;100154.82;1776090;80;21118;-60
2021/03/05 07:43:13;;;;;;;17.52;8.75;;;;;;;4.91;61.78;100149.02;1768132;79;20311;-61
2021/03/05 07:45:40;;;;;;;19.32;9.28;;;;;;;4.74;62.24;100151.34;1753754;78;21210;-61
2021/03/05 07:48:11;;;;;;;19.67;10.15;;;;;;;4.69;62.33;100155.54;1813360;77;21220;-61
2021/03/05 07:50:38;;;;;;;20.37;9.73;;;;;;;4.68;62.50;100156.93;1747812;80;21532;-63
2021/03/05 07:53:06;;;;;;;18.60;9.28;;;;;;;4.68;62.52;100154.33;1776476;80;21477;-62
2021/03/05 07:55:43;;;;;;;15.00;9.05;;;;;;;4.72;62.57;100159.24;1782019;80;21654;-64
2021/03/05 07:58:11;;;;;;;17.77;9.58;;;;;;;4.83;62.22;100162.53;1806690;77;21208;-64
2021/03/05 08:00:51;;;;;;;20.17;8.88;;;;;;;4.94;61.99;100170.56;1779485;78;21205;-62
2021/03/05 08:03:24;;;;;;;13.80;7.60;;;;;;;5.02;61.15;100167.00;1778699;77;21263;-62
2021/03/05 08:05:56;;;;;;;17.70;8.90;;;;;;;5.02;61.15;100167.00;1772323;79;21223;-61
2021/03/05 08:08:24;;;;;;;17.07;8.85;;;;;;;5.00;61.05;100163.66;1798159;77;22113;-60
2021/03/05 08:11:00;;;;;;;15.20;8.00;;;;;;;5.01;60.93;100167.95;1773233;79;22485;-60
2021/03/05 08:13:46;;;;;;;13.93;8.33;;;;;;;5.03;60.69;100163.95;1806215;78;21197;-60
2021/03/05 08:16:33;;;;;;;15.25;8.28;;;;;;;5.00;60.43;100170.17;1781957;78;21200;-61
2021/03/05 08:19:12;;;;;;;15.98;8.65;;;;;;;5.01;60.32;100167.12;1752342;80;21207;-60
2021/03/05 08:22:01;;;;;;;18.00;9.78;;;;;;;5.01;59.64;100163.20;1769404;77;21130;-61
2021/03/05 08:24:33;;;;;;;16.95;8.13;;;;;;;5.01;59.64;100163.20;1739088;80;21641;-60
2021/03/05 08:27:22;;;;;;;15.88;8.33;;;;;;;5.05;59.79;100174.28;1772626;80;21574;-60
2021/03/05 08:30:11;;;;;;;15.30;8.53;;;;;;;5.08;59.77;100171.03;1768830;78;21207;-68
2021/03/05 08:32:49;;;;;;;15.45;8.58;;;;;;;5.13;59.33;100171.58;1815162;77;21473;-64
2021/03/05 08:35:36;;;;;;;20.77;8.15;;;;;;;5.13;59.18;100170.28;1812912;77;21223;-60
2021/03/05 08:38:04;;;;;;;;;;;;;;;5.15;59.07;100174.93;1807950;78;21248;-60
2021/03/05 08:40:38;;;;;;;15.20;8.90;;;;;;;5.20;59.11;100175.96;1807323;77;20589;-59
2021/03/05 08:43:24;;;;;;;19.57;9.83;;;;;;;5.19;58.90;100171.22;1773432;79;21156;-60
2021/03/05 08:46:06;;;;;;;19.60;9.00;;;;;;;5.25;58.74;100170.47;1821673;77;21172;-61
2021/03/05 08:48:45;;;;;;;14.10;7.35;;;;;;;5.24;58.25;100168.30;1768500;78;21120;-60
2021/03/05 08:51:22;;;;;;;15.30;7.90;;;;;;;5.25;58.09;100173.91;1778634;79;21295;-60
2021/03/05 08:53:53;;;;;;;17.85;9.03;;;;;;;5.26;58.02;100176.04;1772306;80;21206;-61
2021/03/05 08:56:27;;;;;;;18.50;9.05;;;;;;;5.23;58.06;100176.22;1774772;77;21231;-60
2021/03/05 08:59:06;;;;;;;19.23;9.18;;;;;;;5.24;58.20;100174.83;1779772;80;21182;-60
2021/03/05 09:01:41;;;;;;;16.80;9.33;;;;;;;5.31;58.16;100174.84;1777051;80;21639;-59
2021/03/05 09:04:14;;;;;;;17.30;9.38;;;;;;;5.34;57.78;100180.33;1764634;80;21265;-59
2021/03/05 09:06:54;;;;;;;17.48;9.18;;;;;;;5.34;57.97;100186.37;1775023;78;21191;-59
2021/03/05 09:09:25;;;;;;;15.08;7.60;;;;;;;5.39;57.77;100187.41;1782154;79;21126;-61
2021/03/05 09:12:16;;;;;;;24.50;10.38;;;;;;;5.48;57.54;100188.59;1778599;78;21181;-60
2021/03/05 09:14:46;;;;;;;18.90;9.98;;;;;;;5.48;57.54;100188.59;1802884;77;21187;-61
2021/03/05 09:17:14;;;;;;;23.77;11.08;;;;;;;5.53;57.17;100190.45;1799422;77;21428;-60
2021/03/05 09:19:47;;;;;;;18.80;11.33;;;;;;;5.54;57.08;100189.06;1802480;77;21196;-62
2021/03/05 09:22:25;;;;;;;22.73;11.30;;;;;;;5.58;57.04;100192.31;1777019;78;21126;-66
2021/03/05 09:25:00;;;;;;;21.37;11.30;;;;;;;5.64;57.10;100194.55;1782555;80;21186;-60
2021/03/05 09:27:40;;;;;;;20.62;10.15;;;;;;;5.67;56.88;100197.45;1758600;78;21296;-60
2021/03/05 09:30:20;;;;;;;25.45;12.23;;;;;;;5.67;56.80;100202.20;1771455;80;21610;-61
2021/03/05 09:32:55;;;;;;;21.77;11.68;;;;;;;5.70;56.98;100204.62;1742426;80;21171;-60
2021/03/05 09:35:29;;;;;;;24.02;11.63;;;;;;;5.70;57.11;100208.53;1769543;80;21124;-60
2021/03/05 09:37:57;;;;;;;23.10;12.47;;;;;;;5.72;56.69;100207.97;1742115;80;21191;-60
2021/03/05 09:40:28;;;;;;;22.30;12.25;;;;;;;5.73;56.67;100203.13;1771890;80;21195;-61
2021/03/05 09:42:58;;;;;;;22.05;11.90;;;;;;;5.74;56.72;100211.79;1769098;80;21375;-65
2021/03/05 09:45:38;;;;;;;23.07;12.15;;;;;;;5.79;56.47;100207.59;1772872;80;21697;-64
2021/03/05 09:48:12;;;;;;;21.97;10.00;;;;;;;5.86;56.47;100215.41;1728444;81;21215;-61
2021/03/05 09:50:40;;;;;;;22.42;11.30;;;;;;;5.86;56.47;100215.41;1747375;80;21222;-61
2021/03/05 09:53:26;;;;;;;22.40;11.05;;;;;;;5.93;56.18;100219.30;1768578;80;21218;-58
2021/03/05 09:55:55;;;;;;;26.80;11.22;;;;;;;5.99;55.83;100217.64;1744090;80;21167;-58
2021/03/05 09:58:23;;;;;;;22.17;9.90;;;;;;;6.04;55.82;100224.72;1758387;80;21199;-60
2021/03/05 10:00:53;;;;;;;26.25;12.00;;;;;;;6.19;55.20;100220.77;1759926;80;21190;-60
2021/03/05 10:03:21;;;;;;;20.72;11.08;;;;;;;6.26;55.16;100225.48;1738822;81;21215;-59
2021/03/05 10:05:50;;;;;;;26.68;11.88;;;;;;;6.26;55.16;100225.48;1737215;80;21706;-60
2021/03/05 10:08:23;;;;;;;31.20;11.20;;;;;;;6.32;54.51;100229.02;1749797;81;21670;-60
2021/03/05 10:11:11;;;;;;;22.98;11.30;;;;;;;6.33;53.97;100224.14;1741909;81;21224;-59
2021/03/05 10:13:54;;;;;;;18.15;9.85;;;;;;;6.34;53.86;100226.30;1713889;81;21235;-60
2021/03/05 10:16:31;;;;;;;20.72;10.10;;;;;;;6.36;53.61;100230.95;1715508;81;21235;-60
2021/03/05 10:19:11;;;;;;;29.15;10.05;;;;;;;6.41;53.38;100230.19;1714295;81;21225;-60
2021/03/05 10:21:46;;;;;;;19.55;9.70;;;;;;;6.46;52.55;100229.41;1747956;81;22859;-59
2021/03/05 10:24:16;;;;;;;25.40;9.68;;;;;;;6.46;52.55;100229.41;1747103;81;21144;-60
2021/03/05 10:29:56;;;;;;;16.87;9.38;;;;;;;6.55;52.23;100231.06;1763008;80;21228;-61
2021/03/05 10:32:37;;;;;;;20.62;9.38;;;;;;;6.55;52.37;100236.29;1742498;80;21203;-62
2021/03/05 10:35:11;;;;;;;16.05;8.18;;;;;;;6.58;51.89;100224.33;1745600;80;21222;-60
2021/03/05 10:37:39;;;;;;;21.20;9.00;;;;;;;6.64;51.92;100233.05;1761182;79;21174;-60
2021/03/05 10:40:14;;;;;;;18.55;8.18;;;;;;;6.71;51.25;100231.73;1775053;79;21186;-60
2021/03/05 10:42:42;;;;;;;18.65;9.13;;;;;;;6.79;50.55;100224.66;1776431;79;21246;-60
2021/03/05 10:45:10;;;;;;;19.55;9.35;;;;;;;6.79;50.66;100221.60;1777065;79;21569;-59
2021/03/05 10:47:38;;;;;;;33.58;10.10;;;;;;;6.84;50.93;100215.59;1734923;81;22153;-60
2021/03/05 10:50:08;;;;;;;16.37;10.08;;;;;;;6.92;50.80;100222.08;1752032;80;21267;-60
2021/03/05 10:52:36;;;;;;;18.23;8.50;;;;;;;6.94;50.78;100219.70;1778985;79;21175;-60
2021/03/05 10:55:06;;;;;;;19.20;9.45;;;;;;;6.93;50.95;100219.84;1756340;80;21199;-60
2021/03/05 10:57:33;;;;;;;25.25;9.28;;;;;;;6.93;50.78;100221.15;1771594;79;21489;-59
2021/03/05 11:00:01;;;;;;;23.65;9.35;;;;;;;6.91;50.70;100223.86;1737546;80;22093;-59
2021/03/05 11:02:31;;;;;;;29.07;10.75;;;;;;;6.84;50.83;100226.05;1772423;79;21219;-61
2021/03/05 11:04:59;;;;;;;17.75;9.13;;;;;;;6.80;51.05;100228.48;1779068;79;21238;-60
2021/03/05 11:07:27;;;;;;;17.57;8.65;;;;;;;6.78;50.85;100230.86;1781247;79;21225;-61
2021/03/05 11:09:57;;;;;;;19.82;9.23;;;;;;;6.69;51.11;100231.83;1772164;79;21203;-59
2021/03/05 11:12:25;;;;;;;14.50;8.13;;;;;;;6.66;51.42;100235.95;1783255;79;21426;-59
2021/03/05 11:14:52;;;;;;;11.55;6.33;;;;;;;6.67;51.92;100242.01;1756304;79;21247;-61
2021/03/05 11:17:21;;;;;;;13.80;6.58;;;;;;;6.65;51.54;100232.12;1780607;79;21186;-60
2021/03/05 11:19:50;;;;;;;15.32;6.85;;;;;;;6.64;51.56;100241.75;1788878;79;21159;-61
2021/03/05 11:22:18;;;;;;;20.10;9.75;;;;;;;6.65;51.92;100246.51;1780064;79;21195;-61
2021/03/05 11:24:47;;;;;;;14.43;7.30;;;;;;;6.65;52.57;100246.51;1777852;79;22769;-61
2021/03/05 11:27:15;;;;;;;14.85;7.78;;;;;;;6.54;53.12;100249.84;1784838;78;21341;-62
2021/03/05 11:29:42;;;;;;;13.53;7.72;;;;;;;6.35;53.63;100252.78;1777821;78;21204;-61
2021/03/05 11:32:09;;;;;;;17.27;8.35;;;;;;;6.23;54.27;100256.20;1779805;80;21187;-64
2021/03/05 11:34:37;;;;;;;14.63;7.45;;;;;;;6.14;55.45;100259.77;1766220;79;21216;-61
2021/03/05 11:37:05;;;;;;;17.42;7.62;;;;;;;6.10;56.29;100261.35;1777400;79;21213;-62
2021/03/05 11:39:33;;;;;;;12.93;6.67;;;;;;;6.02;56.82;100261.86;1770480;79;21202;-65
2021/03/05 11:42:02;;;;;;;15.88;7.40;;;;;;;5.96;57.36;100268.76;1756930;80;21158;-61
2021/03/05 11:44:29;;;;;;;14.70;7.95;;;;;;;5.90;57.61;100271.71;1750430;79;21192;-61
2021/03/05 11:46:59;;;;;;;15.05;7.65;;;;;;;5.84;58.47;100270.81;1767138;79;21220;-61
2021/03/05 11:49:26;;;;;;;13.32;7.70;;;;;;;5.84;58.47;100270.81;1767554;79;21194;-60
2021/03/05 11:51:56;;;;;;;12.60;7.53;;;;;;;5.82;58.30;100268.77;1810591;78;21587;-60